Terminal Aerodrome Forecast
Issued by NWS

Home | Current Version | Previous Version | Text Only | Print | Product List | Glossary On
Versions: 1 2 3 4 5 6 7 8 9 10 11 12
945
FTUS42 TJSJ 131739
TAFJPS
TAF
TJPS 131739Z 1318/1418 17010KT P6SM VCSH SCT025 BKN060
      TEMPO 1318/1320 -SHRA BKN030
     FM132330 05005KT P6SM FEW025 FEW060
     FM141500 13012KT P6SM FEW030 SCT060
      AMD NOT SKED TIL 140300=

USA.gov is the U.S. government's official web portal to all federal, state and local government web resources and services.